Time;durP1;ratioP1;P1;durP2;ratioP2;P2;SDS_P1;SDS_P2;PMS_P1;PMS_P2;Temp;Humidity;BMP_temperature;BMP_pressure;BME280_temperature;BME280_humidity;BME280_pressure;Samples;Min_cycle;Max_cycle;Signal;HPM_P1;HPM_P2
2021/05/23 00:00:32;;;;;;;9.50;2.10;;;15.50;99.90;;;;;;5123238;27;20272;-72
2021/05/23 00:03:06;;;;;;;9.53;1.90;;;15.50;99.90;;;;;;5105511;27;20194;-72
2021/05/23 00:05:33;;;;;;;7.93;2.00;;;15.50;99.90;;;;;;5122474;27;20211;-72
2021/05/23 00:08:23;;;;;;;8.33;2.50;;;15.40;99.90;;;;;;5104210;27;20237;-72
2021/05/23 00:10:57;;;;;;;7.80;2.27;;;15.30;99.90;;;;;;5126815;27;20192;-72
2021/05/23 00:13:34;;;;;;;6.53;2.10;;;15.30;99.90;;;;;;5099253;27;20240;-70
2021/05/23 00:16:13;;;;;;;8.60;2.20;;;15.10;99.90;;;;;;5096024;27;20557;-70
2021/05/23 00:18:45;;;;;;;8.57;1.90;;;15.10;99.90;;;;;;5127719;27;20204;-70
2021/05/23 00:21:15;;;;;;;11.87;2.67;;;15.00;99.90;;;;;;5102444;28;20652;-70
2021/05/23 00:23:41;;;;;;;8.63;2.40;;;14.90;99.90;;;;;;5090902;27;20292;-70
2021/05/23 00:26:08;;;;;;;9.53;2.30;;;14.90;99.90;;;;;;5123677;27;20186;-70
2021/05/23 00:28:36;;;;;;;12.03;2.10;;;14.90;99.90;;;;;;5103892;27;20188;-70
2021/05/23 00:31:04;;;;;;;7.20;2.30;;;14.80;99.90;;;;;;5104182;27;20542;-70
2021/05/23 00:33:30;;;;;;;8.17;1.90;;;14.80;99.90;;;;;;5089683;28;20189;-69
2021/05/23 00:35:57;;;;;;;5.70;2.10;;;14.90;99.90;;;;;;5089790;27;20865;-70
2021/05/23 00:38:23;;;;;;;6.83;2.13;;;14.90;99.90;;;;;;5098382;27;20250;-70
2021/05/23 00:40:50;;;;;;;9.13;2.00;;;14.90;99.90;;;;;;5104035;27;20196;-69
2021/05/23 00:43:19;;;;;;;8.77;2.27;;;14.90;99.90;;;;;;5109850;27;20188;-70
2021/05/23 00:45:51;;;;;;;8.17;2.10;;;14.80;99.90;;;;;;5107575;27;20185;-70
2021/05/23 00:48:20;;;;;;;8.87;2.30;;;14.80;99.90;;;;;;5091917;27;20334;-70
2021/05/23 00:50:47;;;;;;;5.93;2.20;;;14.80;99.90;;;;;;5108417;27;20284;-70
2021/05/23 00:53:15;;;;;;;10.37;2.07;;;14.80;99.90;;;;;;5114438;27;20300;-70
2021/05/23 00:55:41;;;;;;;6.13;2.23;;;14.80;99.90;;;;;;5110216;27;20193;-70
2021/05/23 00:58:08;;;;;;;12.40;2.47;;;14.90;99.90;;;;;;5105498;27;20207;-69
2021/05/23 01:00:41;;;;;;;5.37;2.10;;;14.90;99.90;;;;;;5122190;27;20206;-70
2021/05/23 01:03:26;;;;;;;9.57;2.00;;;14.90;99.90;;;;;;5105404;27;20184;-70
2021/05/23 01:06:05;;;;;;;5.90;2.17;;;14.90;99.90;;;;;;5107188;27;20283;-69
2021/05/23 01:08:35;;;;;;;9.43;2.00;;;14.90;99.90;;;;;;5099384;27;20188;-70
2021/05/23 01:11:28;;;;;;;10.00;2.53;;;14.80;99.90;;;;;;5124172;27;20226;-70
2021/05/23 01:13:58;;;;;;;6.40;2.30;;;14.70;99.90;;;;;;5125285;27;20296;-69
2021/05/23 01:16:34;;;;;;;8.33;2.37;;;14.70;99.90;;;;;;5103830;27;20767;-70
2021/05/23 01:19:26;;;;;;;8.17;2.10;;;14.80;99.90;;;;;;5124637;27;20300;-69
2021/05/23 01:22:11;;;;;;;7.53;2.20;;;14.70;99.90;;;;;;5116003;27;20184;-70
2021/05/23 01:25:19;;;;;;;8.17;1.90;;;14.70;99.90;;;;;;5112765;27;20183;-70
2021/05/23 01:27:52;;;;;;;8.33;1.90;;;14.70;99.90;;;;;;5103014;27;21530;-69
2021/05/23 01:30:34;;;;;;;6.33;1.80;;;14.60;99.90;;;;;;5106888;27;20602;-70
2021/05/23 01:33:04;;;;;;;6.20;2.23;;;14.60;99.90;;;;;;5107434;27;20242;-69
2021/05/23 01:35:37;;;;;;;8.20;2.30;;;14.60;99.90;;;;;;5107857;27;20177;-69
2021/05/23 01:38:11;;;;;;;11.23;2.17;;;14.60;99.90;;;;;;5122234;27;20208;-70
2021/05/23 01:40:38;;;;;;;8.37;2.23;;;14.60;99.90;;;;;;5108024;27;20188;-69
2021/05/23 01:43:07;;;;;;;7.23;2.07;;;14.60;99.90;;;;;;5088142;27;20234;-69
2021/05/23 01:45:35;;;;;;;9.97;2.00;;;14.70;99.90;;;;;;5105076;27;20322;-69
2021/05/23 01:48:04;;;;;;;7.20;2.10;;;14.90;99.90;;;;;;5124214;27;20181;-70
2021/05/23 01:50:31;;;;;;;9.57;2.37;;;15.00;99.90;;;;;;5086030;27;20240;-70
2021/05/23 01:53:01;;;;;;;13.00;2.57;;;15.10;99.90;;;;;;5099496;27;20824;-70
2021/05/23 01:55:30;;;;;;;7.97;2.17;;;15.20;99.90;;;;;;5123945;27;20205;-72
2021/05/23 01:57:56;;;;;;;9.17;2.53;;;15.40;99.90;;;;;;5118973;27;20209;-72
2021/05/23 02:00:32;;;;;;;15.03;2.73;;;15.40;99.90;;;;;;5124995;27;20181;-72
2021/05/23 02:02:59;;;;;;;13.37;2.73;;;15.40;99.90;;;;;;5103003;27;20229;-72
2021/05/23 02:05:26;;;;;;;10.87;2.60;;;15.50;99.90;;;;;;5087034;28;20184;-70
2021/05/23 02:07:53;;;;;;;9.17;2.30;;;15.40;99.90;;;;;;5124324;27;20219;-70
2021/05/23 02:10:21;;;;;;;11.37;2.50;;;15.40;99.90;;;;;;5106935;27;20181;-70
2021/05/23 02:12:47;;;;;;;12.37;2.23;;;15.40;99.90;;;;;;5117509;27;20196;-70
2021/05/23 02:15:18;;;;;;;7.70;2.30;;;15.40;99.90;;;;;;5089461;27;20210;-70
2021/05/23 02:17:47;;;;;;;9.63;2.73;;;15.50;99.90;;;;;;5107013;28;20216;-70
2021/05/23 02:20:24;;;;;;;8.63;2.60;;;15.50;99.90;;;;;;5124624;27;20223;-70
2021/05/23 02:22:51;;;;;;;16.57;3.17;;;15.50;99.90;;;;;;5099711;27;20261;-72
2021/05/23 02:25:22;;;;;;;11.47;2.40;;;15.60;99.90;;;;;;5100736;28;20196;-72
2021/05/23 02:27:57;;;;;;;12.20;2.90;;;15.60;99.90;;;;;;5088403;28;20186;-73
2021/05/23 02:30:34;;;;;;;10.13;4.03;;;15.60;99.90;;;;;;5093290;28;20211;-70
2021/05/23 02:33:03;;;;;;;10.30;2.10;;;15.70;99.90;;;;;;5121627;27;21172;-69
2021/05/23 02:35:34;;;;;;;6.53;2.13;;;15.80;99.90;;;;;;5111411;28;20696;-72
2021/05/23 02:38:04;;;;;;;13.70;2.63;;;15.70;99.90;;;;;;5104227;27;20205;-73
2021/05/23 02:40:32;;;;;;;10.73;2.60;;;15.70;99.90;;;;;;5105656;28;20267;-73
2021/05/23 02:43:12;;;;;;;7.27;2.40;;;15.80;99.90;;;;;;5103342;28;20185;-70
2021/05/23 02:45:41;;;;;;;10.17;2.10;;;15.90;99.90;;;;;;5088651;28;20183;-70
2021/05/23 02:48:09;;;;;;;9.27;2.27;;;16.00;99.90;;;;;;5103772;27;20300;-70
2021/05/23 02:50:44;;;;;;;8.50;1.97;;;16.10;99.90;;;;;;5088799;28;20189;-70
2021/05/23 02:53:11;;;;;;;10.00;2.20;;;16.10;99.90;;;;;;5084888;28;20754;-70
2021/05/23 02:55:44;;;;;;;7.80;2.00;;;16.20;99.90;;;;;;5122329;27;20193;-70
2021/05/23 02:58:13;;;;;;;6.23;1.90;;;16.20;99.90;;;;;;5093206;28;20307;-71
2021/05/23 03:00:42;;;;;;;11.50;2.03;;;16.30;99.90;;;;;;5122569;27;20173;-70
2021/05/23 03:03:10;;;;;;;10.50;2.20;;;16.30;99.90;;;;;;5099824;27;20531;-71
2021/05/23 03:05:37;;;;;;;6.30;1.80;;;16.40;99.90;;;;;;5120712;27;20185;-70
2021/05/23 03:08:04;;;;;;;9.73;2.00;;;16.40;99.90;;;;;;5125813;27;20185;-70
2021/05/23 03:10:42;;;;;;;5.43;1.77;;;16.40;99.90;;;;;;5107167;27;20192;-70
2021/05/23 03:13:09;;;;;;;4.00;1.40;;;16.40;99.90;;;;;;5123703;27;20195;-73
2021/05/23 03:15:38;;;;;;;6.67;1.90;;;16.50;99.90;;;;;;5089696;27;20199;-73
2021/05/23 03:18:05;;;;;;;5.90;1.53;;;16.50;99.90;;;;;;5110824;27;20205;-73
2021/05/23 03:20:33;;;;;;;10.50;1.87;;;16.50;99.90;;;;;;5095491;27;20564;-73
2021/05/23 03:23:00;;;;;;;5.67;1.40;;;16.50;99.90;;;;;;5090739;27;20182;-73
2021/05/23 03:25:29;;;;;;;7.00;1.63;;;16.50;99.90;;;;;;5123387;27;20188;-70
2021/05/23 03:27:57;;;;;;;7.63;1.70;;;16.40;99.90;;;;;;5091400;27;20599;-73
2021/05/23 03:30:41;;;;;;;8.67;1.80;;;16.50;99.90;;;;;;5105743;27;20571;-72
2021/05/23 03:33:10;;;;;;;5.27;1.63;;;16.40;99.90;;;;;;5125670;27;20188;-72
2021/05/23 03:35:38;;;;;;;4.50;1.20;;;16.40;99.90;;;;;;5109979;27;20253;-72
2021/05/23 03:38:05;;;;;;;6.33;1.50;;;16.20;99.90;;;;;;5127620;27;20273;-72
2021/05/23 03:40:35;;;;;;;4.47;1.37;;;16.20;99.90;;;;;;5116143;27;20185;-72
2021/05/23 03:43:01;;;;;;;5.90;1.13;;;16.20;99.90;;;;;;5091319;27;20181;-72
2021/05/23 03:45:27;;;;;;;2.50;1.07;;;16.30;99.90;;;;;;5127680;27;20178;-72
2021/05/23 03:47:54;;;;;;;9.63;1.47;;;16.30;99.90;;;;;;5117393;27;20196;-72
2021/05/23 03:50:24;;;;;;;3.13;1.23;;;16.30;99.90;;;;;;5106262;27;20800;-72
2021/05/23 03:52:55;;;;;;;5.43;1.40;;;16.20;99.90;;;;;;5093102;27;20195;-72
2021/05/23 03:55:22;;;;;;;4.33;1.30;;;16.10;99.90;;;;;;5084442;27;20193;-72
2021/05/23 03:57:49;;;;;;;7.67;1.50;;;16.10;99.90;;;;;;5106490;27;20248;-72
2021/05/23 04:00:17;;;;;;;4.97;1.40;;;16.20;99.90;;;;;;5107483;27;20249;-72
2021/05/23 04:02:48;;;;;;;4.07;1.30;;;16.30;99.90;;;;;;5109720;27;20641;-73
2021/05/23 04:05:16;;;;;;;4.33;1.13;;;16.40;99.90;;;;;;5092063;27;20278;-72
2021/05/23 04:07:42;;;;;;;6.70;1.70;;;16.40;99.90;;;;;;5108704;27;20692;-73
2021/05/23 04:10:10;;;;;;;5.13;1.30;;;16.50;99.90;;;;;;5091491;27;20181;-71
2021/05/23 04:12:40;;;;;;;2.03;0.90;;;16.70;99.90;;;;;;5107059;27;20304;-72
2021/05/23 04:15:10;;;;;;;7.77;1.33;;;16.70;99.90;;;;;;5093295;27;20641;-72
2021/05/23 04:17:36;;;;;;;5.83;1.13;;;16.70;99.90;;;;;;5107626;27;20248;-72
2021/05/23 04:20:08;;;;;;;4.23;1.10;;;16.70;99.90;;;;;;5106694;27;20215;-72
2021/05/23 04:22:36;;;;;;;4.57;1.50;;;16.80;99.90;;;;;;5127287;27;20272;-72
2021/05/23 04:25:08;;;;;;;4.87;1.37;;;17.00;99.90;;;;;;5105846;27;20193;-73
2021/05/23 04:27:36;;;;;;;4.60;1.23;;;17.00;99.90;;;;;;5119156;27;20192;-72
2021/05/23 04:30:06;;;;;;;7.63;1.30;;;17.20;99.90;;;;;;5107781;27;20199;-73
2021/05/23 04:32:33;;;;;;;8.07;1.27;;;17.40;99.90;;;;;;5110842;27;20200;-72
2021/05/23 04:34:59;;;;;;;8.33;1.50;;;17.50;99.90;;;;;;5092706;27;20230;-73
2021/05/23 04:37:26;;;;;;;5.03;1.17;;;17.50;99.90;;;;;;5112670;27;20181;-72
2021/05/23 04:39:53;;;;;;;3.60;1.33;;;17.60;99.90;;;;;;5108868;27;20193;-72
2021/05/23 04:42:20;;;;;;;8.20;1.27;;;17.70;99.90;;;;;;5114616;27;20284;-71
2021/05/23 04:44:46;;;;;;;4.40;1.10;;;17.70;99.90;;;;;;5092629;27;20199;-71
2021/05/23 04:47:12;;;;;;;2.90;1.20;;;17.80;99.90;;;;;;5109839;27;20181;-73
2021/05/23 04:49:39;;;;;;;4.43;1.47;;;17.80;99.90;;;;;;5107690;27;20189;-72
2021/05/23 04:52:12;;;;;;;3.10;1.07;;;17.90;99.90;;;;;;5093055;27;20193;-71
2021/05/23 04:54:41;;;;;;;4.87;1.20;;;17.90;99.90;;;;;;5110130;27;20188;-72
2021/05/23 04:57:08;;;;;;;7.13;1.40;;;18.20;99.90;;;;;;5086975;27;20212;-71
2021/05/23 04:59:35;;;;;;;6.20;1.70;;;18.30;99.90;;;;;;5104558;27;20208;-71
2021/05/23 05:02:03;;;;;;;2.50;1.30;;;18.30;99.90;;;;;;5125598;27;20238;-70
2021/05/23 05:04:29;;;;;;;5.50;1.50;;;18.40;99.90;;;;;;5107375;27;20237;-70
2021/05/23 05:06:56;;;;;;;8.97;1.67;;;18.40;99.90;;;;;;5092092;27;20200;-70
2021/05/23 05:09:22;;;;;;;7.27;1.67;;;18.50;99.90;;;;;;5129039;27;20191;-70
2021/05/23 05:11:49;;;;;;;6.30;1.53;;;18.70;99.90;;;;;;5121394;27;20197;-70
2021/05/23 05:14:15;;;;;;;7.77;1.50;;;18.60;99.90;;;;;;5093422;27;20203;-72
2021/05/23 05:16:42;;;;;;;4.57;1.30;;;18.50;99.90;;;;;;5097316;27;20261;-70
2021/05/23 05:19:09;;;;;;;6.33;1.43;;;18.50;99.90;;;;;;5108030;27;20265;-70
2021/05/23 05:21:37;;;;;;;5.87;1.47;;;18.80;99.90;;;;;;5110343;27;20181;-72
2021/05/23 05:24:04;;;;;;;10.07;1.87;;;18.60;99.90;;;;;;5109511;27;20634;-70
2021/05/23 05:26:30;;;;;;;9.53;1.90;;;18.60;99.90;;;;;;5109498;27;20204;-72
2021/05/23 05:28:56;;;;;;;7.33;1.97;;;18.80;99.90;;;;;;5095901;27;20224;-72
2021/05/23 05:31:23;;;;;;;7.93;2.07;;;19.20;99.90;;;;;;5117553;27;20189;-72
2021/05/23 05:33:50;;;;;;;8.37;2.23;;;19.30;99.90;;;;;;5121215;27;20724;-69
2021/05/23 05:36:16;;;;;;;5.63;1.90;;;19.40;99.90;;;;;;5125517;27;20173;-72
2021/05/23 05:38:42;;;;;;;6.03;1.60;;;19.50;99.90;;;;;;5122980;27;20216;-72
2021/05/23 05:41:08;;;;;;;9.00;1.60;;;19.50;99.90;;;;;;5111514;27;20192;-70
2021/05/23 05:43:35;;;;;;;5.13;1.70;;;19.50;99.90;;;;;;5124215;27;20195;-70
2021/05/23 05:46:01;;;;;;;9.47;1.90;;;19.50;99.90;;;;;;5104252;27;20189;-72
2021/05/23 05:48:27;;;;;;;7.97;1.80;;;19.80;99.90;;;;;;5085728;27;20191;-72
2021/05/23 05:50:54;;;;;;;4.93;1.60;;;20.00;99.90;;;;;;5102266;27;20189;-72
2021/05/23 05:53:20;;;;;;;9.90;2.50;;;20.10;99.90;;;;;;5107146;27;20277;-72
2021/05/23 05:55:47;;;;;;;5.87;1.43;;;20.00;99.90;;;;;;5123599;27;20553;-73
2021/05/23 05:58:13;;;;;;;8.77;1.70;;;20.00;99.90;;;;;;5083880;27;20209;-72
2021/05/23 06:00:39;;;;;;;6.57;1.60;;;20.10;99.90;;;;;;5089181;27;20279;-73
2021/05/23 06:03:05;;;;;;;7.60;1.87;;;20.10;99.90;;;;;;5109874;27;20180;-72
2021/05/23 06:05:32;;;;;;;5.00;1.70;;;20.30;99.90;;;;;;5122631;27;20534;-72
2021/05/23 06:07:58;;;;;;;11.10;1.93;;;20.40;99.90;;;;;;5092137;27;20185;-73
2021/05/23 06:10:24;;;;;;;14.03;2.23;;;20.20;99.90;;;;;;5088020;27;20199;-72
2021/05/23 06:12:51;;;;;;;6.83;1.80;;;20.40;99.90;;;;;;5122457;27;20180;-72
2021/05/23 06:15:19;;;;;;;5.37;2.00;;;20.50;99.90;;;;;;5105498;27;20693;-73
2021/05/23 06:17:45;;;;;;;11.47;1.73;;;20.70;99.90;;;;;;5110571;27;20236;-72
2021/05/23 06:20:13;;;;;;;9.83;2.10;;;20.80;99.90;;;;;;5122001;27;20231;-72
2021/05/23 06:22:39;;;;;;;7.73;2.40;;;20.90;99.90;;;;;;5102526;28;20197;-71
2021/05/23 06:25:08;;;;;;;9.57;2.23;;;21.00;99.90;;;;;;5088452;28;20180;-73
2021/05/23 06:27:35;;;;;;;9.07;1.90;;;21.10;99.90;;;;;;5120628;27;20321;-73
2021/05/23 06:30:04;;;;;;;9.80;1.90;;;21.20;99.90;;;;;;5100518;28;20193;-72
2021/05/23 06:32:30;;;;;;;9.00;2.20;;;21.20;99.90;;;;;;5111818;27;20196;-72
2021/05/23 06:34:57;;;;;;;12.40;2.40;;;21.40;99.90;;;;;;5105879;28;20185;-73
2021/05/23 06:37:26;;;;;;;11.73;1.90;;;21.40;99.90;;;;;;5087598;28;20649;-69
2021/05/23 06:39:53;;;;;;;10.47;1.80;;;21.40;99.90;;;;;;5108616;27;20200;-72
2021/05/23 06:42:20;;;;;;;7.13;2.23;;;21.60;99.90;;;;;;5091334;27;20193;-73
2021/05/23 06:44:46;;;;;;;14.17;2.53;;;21.40;99.90;;;;;;5113647;27;20241;-72
2021/05/23 06:47:13;;;;;;;6.87;1.80;;;21.50;99.90;;;;;;5087956;27;20189;-72
2021/05/23 06:49:40;;;;;;;9.10;1.93;;;21.70;99.90;;;;;;5091509;27;20199;-72
2021/05/23 06:52:07;;;;;;;11.23;2.03;;;21.80;99.90;;;;;;5130237;27;20256;-72
2021/05/23 06:54:33;;;;;;;10.20;2.80;;;21.80;99.90;;;;;;5111158;27;20193;-72
2021/05/23 06:56:59;;;;;;;3.70;1.60;;;22.00;99.90;;;;;;5110359;27;20188;-70
2021/05/23 06:59:26;;;;;;;9.87;1.87;;;22.10;99.90;;;;;;5090268;27;20711;-72
2021/05/23 07:01:52;;;;;;;12.37;2.27;;;22.10;99.90;;;;;;5087679;27;20798;-72
2021/05/23 07:04:19;;;;;;;10.23;1.93;;;22.20;99.90;;;;;;5113667;27;20690;-72
2021/05/23 07:06:45;;;;;;;5.60;1.97;;;22.20;99.90;;;;;;5093385;27;20547;-72
2021/05/23 07:09:11;;;;;;;12.37;2.27;;;22.30;99.90;;;;;;5116936;27;20307;-72
2021/05/23 07:11:38;;;;;;;9.70;2.53;;;22.30;99.90;;;;;;5125307;27;20222;-72
2021/05/23 07:14:04;;;;;;;5.63;1.90;;;22.40;99.90;;;;;;5105489;27;20197;-72
2021/05/23 07:16:31;;;;;;;6.83;1.80;;;22.60;99.90;;;;;;5090397;28;20196;-72
2021/05/23 07:18:57;;;;;;;8.07;1.90;;;22.60;99.90;;;;;;5101531;27;20300;-72
2021/05/23 07:21:24;;;;;;;7.20;1.50;;;22.60;99.90;;;;;;5110020;27;20584;-71
2021/05/23 07:23:54;;;;;;;6.57;2.27;;;22.70;99.90;;;;;;5091924;27;20181;-71
2021/05/23 07:26:22;;;;;;;4.77;1.40;;;22.80;99.90;;;;;;5101404;27;20238;-74
2021/05/23 07:28:49;;;;;;;7.93;1.90;;;22.90;99.90;;;;;;5121615;27;20192;-73
2021/05/23 07:31:15;;;;;;;5.43;1.40;;;23.00;99.90;;;;;;5101566;27;21170;-73
2021/05/23 07:33:42;;;;;;;8.77;1.73;;;23.20;99.90;;;;;;5099881;27;20549;-73
2021/05/23 07:36:12;;;;;;;6.17;1.60;;;23.20;99.90;;;;;;5104364;27;20186;-73
2021/05/23 07:38:41;;;;;;;8.70;1.93;;;23.30;99.90;;;;;;5088996;27;20209;-72
2021/05/23 07:41:07;;;;;;;5.40;1.50;;;23.30;99.90;;;;;;5103526;27;20189;-73
2021/05/23 07:43:35;;;;;;;6.47;1.60;;;23.40;99.90;;;;;;5128329;27;20233;-70
2021/05/23 07:46:01;;;;;;;4.67;1.60;;;23.50;99.90;;;;;;5104220;27;20199;-72
2021/05/23 07:48:28;;;;;;;6.83;1.77;;;23.60;99.90;;;;;;5086164;27;20219;-73
2021/05/23 07:50:54;;;;;;;6.33;1.93;;;23.70;99.90;;;;;;5106041;27;20204;-73
2021/05/23 07:53:22;;;;;;;7.97;1.70;;;23.80;99.90;;;;;;5088064;28;20196;-72
2021/05/23 07:55:50;;;;;;;9.60;2.33;;;23.90;99.90;;;;;;5088646;27;20287;-73
2021/05/23 07:58:17;;;;;;;3.93;1.43;;;24.00;99.90;;;;;;5092373;27;20241;-72
2021/05/23 08:00:43;;;;;;;9.87;1.97;;;23.90;99.90;;;;;;5105815;27;20204;-73
2021/05/23 08:03:09;;;;;;;11.00;1.50;;;24.00;99.90;;;;;;5081588;27;20192;-73
2021/05/23 08:05:36;;;;;;;6.53;1.60;;;24.00;99.90;;;;;;5105821;27;20200;-73
2021/05/23 08:08:05;;;;;;;7.33;1.40;;;24.10;99.90;;;;;;5122068;27;20188;-72
2021/05/23 08:10:31;;;;;;;6.87;1.50;;;24.10;99.90;;;;;;5109870;27;20235;-73
2021/05/23 08:12:58;;;;;;;10.55;1.65;;;24.20;99.90;;;;;;5126761;27;20276;-71
2021/05/23 08:15:24;;;;;;;6.93;1.70;;;24.30;99.90;;;;;;5105258;27;20249;-72
2021/05/23 08:17:54;;;;;;;5.23;1.77;;;24.40;99.90;;;;;;5102670;27;20290;-71
2021/05/23 08:20:21;;;;;;;6.20;1.33;;;24.40;99.90;;;;;;5085120;27;20197;-71
2021/05/23 08:22:55;;;;;;;6.43;1.80;;;24.60;99.90;;;;;;5085824;27;20187;-72
2021/05/23 08:25:21;;;;;;;2.63;1.50;;;24.70;99.90;;;;;;5089029;27;20180;-71
2021/05/23 08:27:51;;;;;;;7.22;1.55;;;24.60;99.90;;;;;;5092195;27;20711;-73
2021/05/23 08:30:18;;;;;;;8.30;1.57;;;24.60;99.90;;;;;;5091728;27;20195;-73
2021/05/23 08:32:44;;;;;;;7.73;1.67;;;24.70;99.90;;;;;;5105762;27;20199;-72
2021/05/23 08:35:12;;;;;;;9.20;1.60;;;24.70;99.90;;;;;;5100410;27;20572;-72
2021/05/23 08:37:39;;;;;;;4.70;1.27;;;24.70;99.90;;;;;;5120566;27;20189;-71
2021/05/23 08:40:07;;;;;;;10.30;1.70;;;24.90;99.90;;;;;;5105096;27;20204;-71
2021/05/23 08:42:36;;;;;;;7.20;1.42;;;24.90;99.90;;;;;;5090060;27;20223;-71
2021/05/23 08:45:07;;;;;;;6.47;1.43;;;24.90;99.90;;;;;;5105197;27;20194;-71
2021/05/23 08:47:45;;;;;;;5.57;1.20;;;25.00;99.90;;;;;;5100596;27;20216;-72
2021/05/23 08:50:16;;;;;;;10.00;1.20;;;25.10;99.90;;;;;;5123048;27;20185;-73
2021/05/23 08:52:58;;;;;;;7.77;1.30;;;25.10;99.90;;;;;;5086088;27;20280;-73
2021/05/23 08:55:45;;;;;;;7.03;1.10;;;25.30;99.90;;;;;;5089615;27;20218;-71
2021/05/23 08:58:13;;;;;;;8.68;1.10;;;25.30;99.90;;;;;;5083065;27;20847;-72
2021/05/23 09:00:39;;;;;;;4.60;1.15;;;25.50;99.20;;;;;;5116922;27;20197;-71
2021/05/23 09:03:11;;;;;;;2.28;1.20;;;25.40;99.20;;;;;;5095319;27;20317;-70
2021/05/23 09:05:49;;;;;;;4.82;1.30;;;25.40;98.00;;;;;;5103773;27;20192;-70
2021/05/23 09:08:26;;;;;;;6.15;1.33;;;25.40;97.80;;;;;;5107661;27;20645;-70
2021/05/23 09:11:01;;;;;;;6.88;1.10;;;25.50;97.60;;;;;;5100804;27;20541;-70
2021/05/23 09:13:37;;;;;;;7.15;1.33;;;25.50;97.90;;;;;;5085832;27;20656;-71
2021/05/23 09:16:05;;;;;;;4.45;1.25;;;25.50;97.90;;;;;;5117341;27;20204;-72
2021/05/23 09:18:55;;;;;;;2.15;1.20;;;25.90;96.80;;;;;;5086732;27;20247;-72
2021/05/23 09:21:35;;;;;;;5.60;1.20;;;26.00;97.90;;;;;;5106264;27;20208;-72
2021/05/23 09:24:06;;;;;;;5.95;1.13;;;26.00;94.80;;;;;;5117428;27;20652;-71
2021/05/23 09:26:44;;;;;;;6.18;1.20;;;26.20;96.20;;;;;;5087067;27;20196;-72
2021/05/23 09:29:18;;;;;;;9.43;1.00;;;26.30;95.40;;;;;;5104787;27;20653;-73
2021/05/23 09:31:54;;;;;;;2.85;1.00;;;26.30;96.30;;;;;;5088756;27;20225;-72
2021/05/23 09:34:28;;;;;;;5.07;1.10;;;26.70;93.10;;;;;;5100364;27;20184;-72
2021/05/23 09:36:55;;;;;;;3.40;1.05;;;26.90;92.30;;;;;;5104723;27;20695;-72
2021/05/23 09:39:21;;;;;;;7.97;1.50;;;27.10;93.20;;;;;;5108635;27;20217;-71
2021/05/23 09:41:48;;;;;;;3.33;1.20;;;27.00;92.80;;;;;;5121960;27;20183;-72
2021/05/23 09:44:25;;;;;;;10.15;1.27;;;27.00;92.40;;;;;;5089261;27;20269;-71
2021/05/23 09:47:09;;;;;;;1.70;1.00;;;27.10;92.70;;;;;;5102719;27;20182;-72
2021/05/23 09:49:46;;;;;;;5.25;0.95;;;27.00;92.80;;;;;;5106786;27;20188;-72
2021/05/23 09:52:18;;;;;;;4.18;1.35;;;27.20;92.40;;;;;;5086622;27;20193;-72
2021/05/23 09:54:50;;;;;;;4.32;1.20;;;27.40;92.80;;;;;;5090163;27;20673;-70
2021/05/23 09:57:23;;;;;;;4.60;1.35;;;27.50;93.00;;;;;;5087698;27;20679;-70
2021/05/23 10:00:09;;;;;;;9.80;1.48;;;27.50;91.40;;;;;;5087521;27;20205;-70
2021/05/23 10:02:57;;;;;;;13.85;1.88;;;27.80;90.90;;;;;;5109270;27;20231;-70
2021/05/23 10:05:25;;;;;;;4.07;1.20;;;27.80;90.60;;;;;;5087694;27;20185;-70
2021/05/23 10:07:52;;;;;;;10.38;1.60;;;28.00;90.70;;;;;;5089288;27;20184;-70
2021/05/23 10:10:19;;;;;;;8.88;1.33;;;28.00;87.90;;;;;;5086897;27;20195;-71
2021/05/23 10:12:46;;;;;;;6.28;1.40;;;27.90;87.80;;;;;;5086265;27;20553;-70
2021/05/23 10:15:14;;;;;;;6.07;1.17;;;28.00;87.40;;;;;;5104079;27;20209;-70
2021/05/23 10:17:41;;;;;;;8.20;1.25;;;28.00;86.40;;;;;;5104895;28;20645;-70
2021/05/23 10:20:11;;;;;;;6.85;1.30;;;28.10;84.50;;;;;;5107321;27;20193;-71
2021/05/23 10:22:40;;;;;;;3.17;1.23;;;27.80;86.90;;;;;;5100091;28;20189;-70
2021/05/23 10:25:13;;;;;;;5.05;1.25;;;28.10;83.70;;;;;;5101830;27;20182;-70
2021/05/23 10:27:46;;;;;;;7.90;1.30;;;27.90;84.20;;;;;;5101348;28;21306;-70
2021/05/23 10:30:14;;;;;;;3.70;1.13;;;27.60;83.90;;;;;;5121132;28;20177;-70
2021/05/23 10:32:42;;;;;;;7.22;1.23;;;27.70;84.40;;;;;;5087239;28;20181;-71
2021/05/23 10:35:23;;;;;;;6.45;1.20;;;27.80;84.30;;;;;;5122722;27;20234;-70
2021/05/23 10:37:53;;;;;;;8.10;1.40;;;27.60;84.40;;;;;;5102245;28;20193;-70
2021/05/23 10:40:27;;;;;;;5.55;1.20;;;27.50;84.80;;;;;;5106587;28;20696;-72
2021/05/23 10:42:58;;;;;;;3.95;1.02;;;27.50;81.50;;;;;;5117922;27;20279;-73
2021/05/23 10:45:41;;;;;;;5.13;1.00;;;27.50;84.30;;;;;;5086337;28;20677;-70
2021/05/23 10:48:15;;;;;;;7.43;1.20;;;27.70;82.70;;;;;;5087762;27;20193;-72
2021/05/23 10:50:47;;;;;;;5.38;1.25;;;27.50;81.90;;;;;;5122228;27;20196;-72
2021/05/23 10:53:14;;;;;;;6.35;1.30;;;27.40;83.20;;;;;;5118379;27;20184;-72
2021/05/23 10:55:57;;;;;;;6.43;1.05;;;27.40;83.20;;;;;;5090354;28;20193;-72
2021/05/23 10:58:26;;;;;;;5.40;1.30;;;27.40;81.90;;;;;;5092012;27;20669;-72
2021/05/23 11:00:58;;;;;;;4.40;1.42;;;27.30;81.30;;;;;;5105229;28;21331;-72
2021/05/23 11:03:27;;;;;;;4.20;1.13;;;27.30;82.90;;;;;;5086833;27;20230;-72
2021/05/23 11:06:07;;;;;;;5.13;1.17;;;27.10;83.30;;;;;;5100559;28;20219;-72
2021/05/23 11:08:36;;;;;;;4.20;1.30;;;27.10;81.20;;;;;;5119794;28;20191;-72
2021/05/23 11:11:04;;;;;;;17.77;1.40;;;27.10;80.30;;;;;;5106691;27;20227;-72
2021/05/23 11:13:37;;;;;;;3.92;1.23;;;26.90;79.70;;;;;;5083211;28;20208;-72
2021/05/23 11:16:17;;;;;;;5.00;0.90;;;26.80;81.40;;;;;;5084783;28;20193;-72
2021/05/23 11:18:45;;;;;;;4.65;1.30;;;26.90;81.10;;;;;;5123282;27;20224;-72
2021/05/23 11:21:14;;;;;;;4.60;1.00;;;27.00;82.20;;;;;;5100365;27;20269;-72
2021/05/23 11:23:51;;;;;;;7.15;1.40;;;27.10;82.60;;;;;;5100947;28;20198;-72
2021/05/23 11:26:19;;;;;;;2.47;0.95;;;27.20;83.50;;;;;;5098042;27;20177;-73
2021/05/23 11:29:06;;;;;;;6.22;1.23;;;26.90;82.10;;;;;;5100655;27;20267;-72
2021/05/23 11:31:47;;;;;;;4.70;1.10;;;26.80;84.30;;;;;;5102002;27;20669;-73
2021/05/23 11:34:27;;;;;;;5.47;1.00;;;26.80;83.60;;;;;;5105660;27;20209;-72
2021/05/23 11:36:54;;;;;;;2.80;1.10;;;26.80;81.10;;;;;;5122281;27;20271;-72
2021/05/23 11:39:21;;;;;;;4.13;1.15;;;26.70;83.40;;;;;;5122438;27;20212;-72
2021/05/23 11:41:51;;;;;;;1.85;0.95;;;26.70;84.90;;;;;;5111782;27;20197;-72
2021/05/23 11:44:18;;;;;;;5.47;1.15;;;26.80;83.40;;;;;;5108038;27;20939;-71
2021/05/23 11:46:54;;;;;;;3.58;1.10;;;26.80;82.80;;;;;;5105166;27;20193;-71
2021/05/23 11:49:27;;;;;;;6.00;1.00;;;26.60;83.00;;;;;;5106373;27;20188;-72
2021/05/23 11:52:06;;;;;;;6.43;1.25;;;26.60;85.30;;;;;;5088831;27;20207;-72
2021/05/23 11:54:32;;;;;;;3.67;1.13;;;26.80;84.00;;;;;;5122587;27;20188;-71
2021/05/23 11:57:00;;;;;;;6.85;1.20;;;26.50;83.30;;;;;;5105555;27;20709;-71
2021/05/23 11:59:31;;;;;;;5.60;1.13;;;26.30;84.50;;;;;;5092096;27;20970;-72
2021/05/23 12:01:59;;;;;;;2.10;1.05;;;26.30;82.50;;;;;;5086547;27;20189;-72
2021/05/23 12:04:25;;;;;;;1.00;0.80;;;26.30;83.10;;;;;;5091894;27;20181;-72
2021/05/23 12:06:55;;;;;;;8.20;1.35;;;26.30;81.80;;;;;;5088594;27;20607;-72
2021/05/23 12:09:22;;;;;;;5.25;1.00;;;26.40;81.50;;;;;;5104877;27;20231;-71
2021/05/23 12:11:56;;;;;;;2.00;1.02;;;26.40;82.20;;;;;;5086192;27;20186;-71
2021/05/23 12:14:23;;;;;;;1.65;1.08;;;26.20;81.60;;;;;;5122804;27;20188;-72
2021/05/23 12:17:01;;;;;;;3.78;1.13;;;26.00;82.50;;;;;;5105608;27;20200;-72
2021/05/23 12:19:54;;;;;;;4.82;1.10;;;26.00;83.50;;;;;;5090235;27;20420;-71
2021/05/23 12:22:26;;;;;;;4.68;1.20;;;25.90;83.00;;;;;;5118506;27;20185;-72
2021/05/23 12:24:57;;;;;;;9.38;1.30;;;25.80;84.30;;;;;;5086309;27;20202;-72
2021/05/23 12:27:28;;;;;;;6.87;1.20;;;25.90;83.80;;;;;;5108538;27;20276;-72
2021/05/23 12:30:08;;;;;;;4.85;1.00;;;25.60;84.70;;;;;;5111651;27;20192;-72
2021/05/23 12:33:01;;;;;;;2.25;0.98;;;25.60;85.90;;;;;;5123755;27;20189;-72
2021/05/23 12:35:30;;;;;;;4.18;0.90;;;25.60;85.10;;;;;;5088389;27;20238;-72
2021/05/23 12:38:00;;;;;;;2.20;0.90;;;25.30;84.40;;;;;;5089563;27;20216;-72
2021/05/23 12:40:41;;;;;;;2.92;1.00;;;25.30;87.20;;;;;;5104972;27;20210;-72
2021/05/23 12:43:34;;;;;;;5.50;1.20;;;25.20;86.70;;;;;;5104575;27;20529;-71
2021/05/23 12:46:15;;;;;;;4.55;1.00;;;25.10;85.80;;;;;;5100277;27;20185;-72
2021/05/23 12:48:45;;;;;;;11.52;1.25;;;25.30;89.00;;;;;;5110802;27;20192;-71
2021/05/23 12:51:24;;;;;;;1.65;0.90;;;25.30;89.90;;;;;;5104310;27;20188;-71
2021/05/23 12:53:56;;;;;;;3.63;1.10;;;25.40;88.20;;;;;;5105756;27;20188;-71
2021/05/23 12:56:28;;;;;;;4.18;0.90;;;25.20;89.60;;;;;;5086743;27;20181;-70
2021/05/23 12:59:00;;;;;;;5.22;1.00;;;25.40;88.50;;;;;;5106656;27;20200;-73
2021/05/23 13:01:36;;;;;;;4.57;1.00;;;25.30;88.50;;;;;;5091199;27;20217;-71